sensor_id;sensor_type;location;lat;lon;timestamp;temperature;humidity
4451;DHT22;2238;50.180;9.230;2022-11-20T00:00:35;2.00;99.90
4451;DHT22;2238;50.180;9.230;2022-11-20T00:03:36;1.90;99.90
4451;DHT22;2238;50.180;9.230;2022-11-20T00:06:36;1.60;99.90
4451;DHT22;2238;50.180;9.230;2022-11-20T00:09:37;1.60;99.90
4451;DHT22;2238;50.180;9.230;2022-11-20T00:12:37;1.50;99.90
4451;DHT22;2238;50.180;9.230;2022-11-20T00:15:38;1.30;99.90
4451;DHT22;2238;50.180;9.230;2022-11-20T00:18:38;1.30;99.90
4451;DHT22;2238;50.180;9.230;2022-11-20T00:21:39;1.40;99.90
4451;DHT22;2238;50.180;9.230;2022-11-20T00:24:40;1.30;99.90
4451;DHT22;2238;50.180;9.230;2022-11-20T00:27:40;1.40;99.90
4451;DHT22;2238;50.180;9.230;2022-11-20T00:30:41;1.40;99.90
4451;DHT22;2238;50.180;9.230;2022-11-20T00:33:42;1.50;99.90
4451;DHT22;2238;50.180;9.230;2022-11-20T00:36:43;1.10;99.90
4451;DHT22;2238;50.180;9.230;2022-11-20T00:39:44;1.20;99.90
4451;DHT22;2238;50.180;9.230;2022-11-20T00:42:44;1.30;99.90
4451;DHT22;2238;50.180;9.230;2022-11-20T00:45:45;1.20;99.90
4451;DHT22;2238;50.180;9.230;2022-11-20T00:48:46;1.20;99.90
4451;DHT22;2238;50.180;9.230;2022-11-20T00:51:46;1.40;99.90
4451;DHT22;2238;50.180;9.230;2022-11-20T00:54:47;1.20;99.90
4451;DHT22;2238;50.180;9.230;2022-11-20T00:57:48;1.20;99.90
4451;DHT22;2238;50.180;9.230;2022-11-20T01:00:48;1.40;99.90
4451;DHT22;2238;50.180;9.230;2022-11-20T01:03:51;0.60;99.90
4451;DHT22;2238;50.180;9.230;2022-11-20T01:06:52;1.20;99.90
4451;DHT22;2238;50.180;9.230;2022-11-20T01:09:52;1.10;99.90
4451;DHT22;2238;50.180;9.230;2022-11-20T01:12:53;1.30;99.90
4451;DHT22;2238;50.180;9.230;2022-11-20T01:16:25;1.10;99.90
4451;DHT22;2238;50.180;9.230;2022-11-20T01:19:26;1.30;99.90
4451;DHT22;2238;50.180;9.230;2022-11-20T01:22:27;1.30;99.90
4451;DHT22;2238;50.180;9.230;2022-11-20T01:25:27;1.40;99.90
4451;DHT22;2238;50.180;9.230;2022-11-20T01:28:28;1.40;99.90
4451;DHT22;2238;50.180;9.230;2022-11-20T01:31:34;1.30;99.90
4451;DHT22;2238;50.180;9.230;2022-11-20T01:34:35;1.20;99.90
4451;DHT22;2238;50.180;9.230;2022-11-20T01:37:36;1.20;99.90
4451;DHT22;2238;50.180;9.230;2022-11-20T01:40:36;1.20;99.90
4451;DHT22;2238;50.180;9.230;2022-11-20T01:43:37;1.50;99.90
4451;DHT22;2238;50.180;9.230;2022-11-20T01:46:39;1.40;99.90
4451;DHT22;2238;50.180;9.230;2022-11-20T01:49:46;1.50;99.90
4451;DHT22;2238;50.180;9.230;2022-11-20T01:52:52;1.80;99.90
4451;DHT22;2238;50.180;9.230;2022-11-20T01:55:57;1.30;99.90
4451;DHT22;2238;50.180;9.230;2022-11-20T01:59:02;1.30;99.90
4451;DHT22;2238;50.180;9.230;2022-11-20T02:02:04;1.30;99.90
4451;DHT22;2238;50.180;9.230;2022-11-20T02:05:34;1.60;99.90
4451;DHT22;2238;50.180;9.230;2022-11-20T02:08:33;1.70;99.90
4451;DHT22;2238;50.180;9.230;2022-11-20T02:11:34;1.50;99.90
4451;DHT22;2238;50.180;9.230;2022-11-20T02:14:34;1.50;99.90
4451;DHT22;2238;50.180;9.230;2022-11-20T02:17:35;1.60;99.90
4451;DHT22;2238;50.180;9.230;2022-11-20T02:20:36;1.60;99.90
4451;DHT22;2238;50.180;9.230;2022-11-20T02:23:39;1.50;99.90
4451;DHT22;2238;50.180;9.230;2022-11-20T02:26:57;1.50;99.90
4451;DHT22;2238;50.180;9.230;2022-11-20T02:30:02;1.30;99.90
4451;DHT22;2238;50.180;9.230;2022-11-20T02:33:03;0.30;99.90
4451;DHT22;2238;50.180;9.230;2022-11-20T02:36:04;1.40;99.90
4451;DHT22;2238;50.180;9.230;2022-11-20T02:39:05;1.20;99.90
4451;DHT22;2238;50.180;9.230;2022-11-20T02:42:06;1.30;99.90
4451;DHT22;2238;50.180;9.230;2022-11-20T02:45:07;1.20;99.90
4451;DHT22;2238;50.180;9.230;2022-11-20T02:48:08;1.70;99.90
4451;DHT22;2238;50.180;9.230;2022-11-20T02:51:09;1.50;99.90
4451;DHT22;2238;50.180;9.230;2022-11-20T02:54:09;1.40;99.90
4451;DHT22;2238;50.180;9.230;2022-11-20T02:57:10;1.30;99.90
4451;DHT22;2238;50.180;9.230;2022-11-20T03:00:11;1.50;99.90
4451;DHT22;2238;50.180;9.230;2022-11-20T03:03:11;1.70;99.90
4451;DHT22;2238;50.180;9.230;2022-11-20T03:06:12;1.60;99.90
4451;DHT22;2238;50.180;9.230;2022-11-20T03:09:12;1.90;99.90
4451;DHT22;2238;50.180;9.230;2022-11-20T03:12:13;1.70;99.90
4451;DHT22;2238;50.180;9.230;2022-11-20T03:15:14;1.70;99.90
4451;DHT22;2238;50.180;9.230;2022-11-20T03:18:15;1.70;99.90
4451;DHT22;2238;50.180;9.230;2022-11-20T03:21:15;1.50;99.90
4451;DHT22;2238;50.180;9.230;2022-11-20T03:24:16;1.40;99.90
4451;DHT22;2238;50.180;9.230;2022-11-20T03:27:17;1.70;99.90
4451;DHT22;2238;50.180;9.230;2022-11-20T03:30:17;1.50;99.90
4451;DHT22;2238;50.180;9.230;2022-11-20T03:33:18;1.70;99.90
4451;DHT22;2238;50.180;9.230;2022-11-20T03:36:20;2.10;99.90
4451;DHT22;2238;50.180;9.230;2022-11-20T03:39:20;2.20;99.90
4451;DHT22;2238;50.180;9.230;2022-11-20T03:42:21;2.10;99.90
4451;DHT22;2238;50.180;9.230;2022-11-20T03:45:40;1.80;99.90
4451;DHT22;2238;50.180;9.230;2022-11-20T03:48:41;2.00;99.90
4451;DHT22;2238;50.180;9.230;2022-11-20T03:51:41;1.80;99.90
4451;DHT22;2238;50.180;9.230;2022-11-20T03:54:42;1.60;99.90
4451;DHT22;2238;50.180;9.230;2022-11-20T03:57:42;1.70;99.90
4451;DHT22;2238;50.180;9.230;2022-11-20T04:00:43;2.00;99.90
4451;DHT22;2238;50.180;9.230;2022-11-20T04:03:45;2.20;99.90
4451;DHT22;2238;50.180;9.230;2022-11-20T04:06:46;2.10;99.90
4451;DHT22;2238;50.180;9.230;2022-11-20T04:09:46;1.80;99.90
4451;DHT22;2238;50.180;9.230;2022-11-20T04:12:47;1.50;99.90
4451;DHT22;2238;50.180;9.230;2022-11-20T04:15:47;1.40;99.90
4451;DHT22;2238;50.180;9.230;2022-11-20T04:18:54;1.40;99.90
4451;DHT22;2238;50.180;9.230;2022-11-20T04:21:55;1.30;99.90
4451;DHT22;2238;50.180;9.230;2022-11-20T04:24:56;1.70;99.90
4451;DHT22;2238;50.180;9.230;2022-11-20T04:27:56;2.00;99.90
4451;DHT22;2238;50.180;9.230;2022-11-20T04:31:15;2.00;99.90
4451;DHT22;2238;50.180;9.230;2022-11-20T04:34:16;2.10;99.90
4451;DHT22;2238;50.180;9.230;2022-11-20T04:37:16;2.10;99.90
4451;DHT22;2238;50.180;9.230;2022-11-20T04:40:17;2.10;99.90
4451;DHT22;2238;50.180;9.230;2022-11-20T04:43:18;2.10;99.90
4451;DHT22;2238;50.180;9.230;2022-11-20T04:46:19;2.10;99.90
4451;DHT22;2238;50.180;9.230;2022-11-20T04:49:20;1.70;99.90
4451;DHT22;2238;50.180;9.230;2022-11-20T04:52:21;1.60;99.90
4451;DHT22;2238;50.180;9.230;2022-11-20T04:55:21;1.60;99.90
4451;DHT22;2238;50.180;9.230;2022-11-20T04:58:22;1.40;99.90
4451;DHT22;2238;50.180;9.230;2022-11-20T05:01:24;1.50;99.90
4451;DHT22;2238;50.180;9.230;2022-11-20T05:04:25;1.30;99.90
4451;DHT22;2238;50.180;9.230;2022-11-20T05:07:25;1.20;99.90
4451;DHT22;2238;50.180;9.230;2022-11-20T05:10:26;1.30;99.90
4451;DHT22;2238;50.180;9.230;2022-11-20T05:13:27;1.30;99.90
4451;DHT22;2238;50.180;9.230;2022-11-20T05:16:28;1.30;99.90
4451;DHT22;2238;50.180;9.230;2022-11-20T05:19:29;1.20;99.90
4451;DHT22;2238;50.180;9.230;2022-11-20T05:22:29;1.30;99.90
4451;DHT22;2238;50.180;9.230;2022-11-20T05:25:30;1.30;99.90
4451;DHT22;2238;50.180;9.230;2022-11-20T05:28:31;1.30;99.90
4451;DHT22;2238;50.180;9.230;2022-11-20T05:31:32;1.20;99.90
4451;DHT22;2238;50.180;9.230;2022-11-20T05:34:33;1.10;99.90
4451;DHT22;2238;50.180;9.230;2022-11-20T05:37:33;1.20;99.90
4451;DHT22;2238;50.180;9.230;2022-11-20T05:40:34;1.30;99.90
4451;DHT22;2238;50.180;9.230;2022-11-20T05:43:36;1.30;99.90
4451;DHT22;2238;50.180;9.230;2022-11-20T05:46:37;0.80;99.90
4451;DHT22;2238;50.180;9.230;2022-11-20T05:49:38;1.10;99.90
4451;DHT22;2238;50.180;9.230;2022-11-20T05:52:38;1.20;99.90
4451;DHT22;2238;50.180;9.230;2022-11-20T05:55:39;1.20;99.90
4451;DHT22;2238;50.180;9.230;2022-11-20T05:58:39;1.30;99.90
4451;DHT22;2238;50.180;9.230;2022-11-20T06:01:40;1.50;99.90
4451;DHT22;2238;50.180;9.230;2022-11-20T06:04:40;1.60;99.90
4451;DHT22;2238;50.180;9.230;2022-11-20T06:07:41;2.00;99.90
4451;DHT22;2238;50.180;9.230;2022-11-20T06:10:42;2.10;99.90
4451;DHT22;2238;50.180;9.230;2022-11-20T06:13:42;2.10;99.90
4451;DHT22;2238;50.180;9.230;2022-11-20T06:16:43;2.10;99.90
4451;DHT22;2238;50.180;9.230;2022-11-20T06:19:43;1.80;99.90
4451;DHT22;2238;50.180;9.230;2022-11-20T06:22:44;1.80;99.90
4451;DHT22;2238;50.180;9.230;2022-11-20T06:25:45;1.30;99.90
4451;DHT22;2238;50.180;9.230;2022-11-20T06:28:46;1.40;99.90
4451;DHT22;2238;50.180;9.230;2022-11-20T06:31:46;1.50;99.90
4451;DHT22;2238;50.180;9.230;2022-11-20T06:34:47;1.90;99.90
4451;DHT22;2238;50.180;9.230;2022-11-20T06:37:47;2.00;99.90
4451;DHT22;2238;50.180;9.230;2022-11-20T06:40:48;2.10;99.90
4451;DHT22;2238;50.180;9.230;2022-11-20T06:43:49;2.20;99.90
4451;DHT22;2238;50.180;9.230;2022-11-20T06:46:50;2.30;99.90
4451;DHT22;2238;50.180;9.230;2022-11-20T06:49:51;2.30;99.90
4451;DHT22;2238;50.180;9.230;2022-11-20T06:52:51;2.30;99.90
4451;DHT22;2238;50.180;9.230;2022-11-20T06:55:52;2.30;99.90
4451;DHT22;2238;50.180;9.230;2022-11-20T06:58:55;2.30;99.90
4451;DHT22;2238;50.180;9.230;2022-11-20T07:01:56;2.30;99.90
4451;DHT22;2238;50.180;9.230;2022-11-20T07:04:56;2.30;99.90
4451;DHT22;2238;50.180;9.230;2022-11-20T07:07:57;2.30;99.90
4451;DHT22;2238;50.180;9.230;2022-11-20T07:11:00;2.30;99.90
4451;DHT22;2238;50.180;9.230;2022-11-20T07:14:01;2.40;99.90
4451;DHT22;2238;50.180;9.230;2022-11-20T07:17:01;2.10;99.90
4451;DHT22;2238;50.180;9.230;2022-11-20T07:20:02;2.00;99.90
4451;DHT22;2238;50.180;9.230;2022-11-20T07:23:02;1.80;99.90
4451;DHT22;2238;50.180;9.230;2022-11-20T07:26:08;2.20;99.90
4451;DHT22;2238;50.180;9.230;2022-11-20T07:29:09;2.30;99.90
4451;DHT22;2238;50.180;9.230;2022-11-20T07:32:09;1.80;99.90
4451;DHT22;2238;50.180;9.230;2022-11-20T07:35:10;1.90;99.90
4451;DHT22;2238;50.180;9.230;2022-11-20T07:38:11;1.70;99.90
4451;DHT22;2238;50.180;9.230;2022-11-20T07:41:11;1.50;99.90
4451;DHT22;2238;50.180;9.230;2022-11-20T07:44:12;1.60;99.90
4451;DHT22;2238;50.180;9.230;2022-11-20T07:47:12;2.00;99.90
4451;DHT22;2238;50.180;9.230;2022-11-20T07:50:13;2.30;99.90
4451;DHT22;2238;50.180;9.230;2022-11-20T07:53:14;2.20;99.90
4451;DHT22;2238;50.180;9.230;2022-11-20T07:56:20;2.30;99.90
4451;DHT22;2238;50.180;9.230;2022-11-20T07:59:21;2.20;99.90
4451;DHT22;2238;50.180;9.230;2022-11-20T08:02:22;2.40;99.90
4451;DHT22;2238;50.180;9.230;2022-11-20T08:05:23;2.30;99.90
4451;DHT22;2238;50.180;9.230;2022-11-20T08:08:24;1.90;99.90
4451;DHT22;2238;50.180;9.230;2022-11-20T08:11:24;1.80;99.90
4451;DHT22;2238;50.180;9.230;2022-11-20T08:14:43;1.80;99.90
4451;DHT22;2238;50.180;9.230;2022-11-20T08:17:44;2.20;99.90
4451;DHT22;2238;50.180;9.230;2022-11-20T08:20:45;2.40;99.90
4451;DHT22;2238;50.180;9.230;2022-11-20T08:23:45;2.60;99.90
4451;DHT22;2238;50.180;9.230;2022-11-20T08:26:46;2.60;99.90
4451;DHT22;2238;50.180;9.230;2022-11-20T08:29:47;2.60;99.90
4451;DHT22;2238;50.180;9.230;2022-11-20T08:32:47;2.50;99.90
4451;DHT22;2238;50.180;9.230;2022-11-20T08:35:48;2.50;99.90
4451;DHT22;2238;50.180;9.230;2022-11-20T08:38:49;2.50;99.90
4451;DHT22;2238;50.180;9.230;2022-11-20T08:41:50;2.60;99.90
4451;DHT22;2238;50.180;9.230;2022-11-20T08:44:51;2.50;99.90
4451;DHT22;2238;50.180;9.230;2022-11-20T08:47:51;2.60;99.90
4451;DHT22;2238;50.180;9.230;2022-11-20T08:50:52;2.50;99.90
4451;DHT22;2238;50.180;9.230;2022-11-20T08:53:52;2.50;99.90
4451;DHT22;2238;50.180;9.230;2022-11-20T08:56:53;2.40;99.90
4451;DHT22;2238;50.180;9.230;2022-11-20T08:59:53;2.40;99.90
4451;DHT22;2238;50.180;9.230;2022-11-20T09:02:54;2.40;99.90
4451;DHT22;2238;50.180;9.230;2022-11-20T09:06:03;2.60;99.90
4451;DHT22;2238;50.180;9.230;2022-11-20T09:09:04;2.60;99.90
4451;DHT22;2238;50.180;9.230;2022-11-20T09:12:05;2.70;99.90
4451;DHT22;2238;50.180;9.230;2022-11-20T09:15:06;2.80;99.90
4451;DHT22;2238;50.180;9.230;2022-11-20T09:18:07;2.80;99.90
4451;DHT22;2238;50.180;9.230;2022-11-20T09:21:12;2.70;99.90
4451;DHT22;2238;50.180;9.230;2022-11-20T09:24:14;2.70;99.90
4451;DHT22;2238;50.180;9.230;2022-11-20T09:27:14;2.70;99.90
4451;DHT22;2238;50.180;9.230;2022-11-20T09:30:15;2.60;99.90
4451;DHT22;2238;50.180;9.230;2022-11-20T09:33:16;2.60;99.90
4451;DHT22;2238;50.180;9.230;2022-11-20T09:36:17;2.60;99.90
4451;DHT22;2238;50.180;9.230;2022-11-20T09:39:18;2.60;99.90
4451;DHT22;2238;50.180;9.230;2022-11-20T09:54:45;2.70;99.90
4451;DHT22;2238;50.180;9.230;2022-11-20T09:57:48;2.70;99.90
4451;DHT22;2238;50.180;9.230;2022-11-20T10:00:52;2.70;99.90
4451;DHT22;2238;50.180;9.230;2022-11-20T10:04:16;2.70;99.90
4451;DHT22;2238;50.180;9.230;2022-11-20T10:07:21;2.60;99.90
4451;DHT22;2238;50.180;9.230;2022-11-20T10:10:44;2.70;99.90
4451;DHT22;2238;50.180;9.230;2022-11-20T10:53:51;2.70;99.90
4451;DHT22;2238;50.180;9.230;2022-11-20T10:57:00;2.90;99.90
4451;DHT22;2238;50.180;9.230;2022-11-20T11:00:06;3.20;99.90
4451;DHT22;2238;50.180;9.230;2022-11-20T11:03:26;3.10;99.90
4451;DHT22;2238;50.180;9.230;2022-11-20T11:06:42;3.20;99.90
4451;DHT22;2238;50.180;9.230;2022-11-20T11:09:54;3.20;99.90
4451;DHT22;2238;50.180;9.230;2022-11-20T11:12:54;3.20;99.90
4451;DHT22;2238;50.180;9.230;2022-11-20T11:15:56;3.30;99.90
4451;DHT22;2238;50.180;9.230;2022-11-20T11:19:23;3.40;99.90
4451;DHT22;2238;50.180;9.230;2022-11-20T11:22:24;3.30;99.90
4451;DHT22;2238;50.180;9.230;2022-11-20T11:25:31;3.20;99.90
4451;DHT22;2238;50.180;9.230;2022-11-20T11:28:34;3.20;99.90
4451;DHT22;2238;50.180;9.230;2022-11-20T11:31:35;3.20;99.90
4451;DHT22;2238;50.180;9.230;2022-11-20T11:34:35;3.10;99.90
4451;DHT22;2238;50.180;9.230;2022-11-20T11:37:37;3.10;99.90
4451;DHT22;2238;50.180;9.230;2022-11-20T11:40:40;3.30;99.90
4451;DHT22;2238;50.180;9.230;2022-11-20T11:44:00;3.30;99.90
4451;DHT22;2238;50.180;9.230;2022-11-20T11:47:29;3.30;99.90
4451;DHT22;2238;50.180;9.230;2022-11-20T11:50:30;3.30;99.90
4451;DHT22;2238;50.180;9.230;2022-11-20T11:53:32;3.30;99.90
4451;DHT22;2238;50.180;9.230;2022-11-20T11:56:34;3.30;99.90
4451;DHT22;2238;50.180;9.230;2022-11-20T11:59:55;3.20;99.90
4451;DHT22;2238;50.180;9.230;2022-11-20T12:06:42;3.40;99.90
4451;DHT22;2238;50.180;9.230;2022-11-20T12:09:48;3.40;99.90
4451;DHT22;2238;50.180;9.230;2022-11-20T12:12:55;3.40;99.90
4451;DHT22;2238;50.180;9.230;2022-11-20T12:15:59;3.40;99.90
4451;DHT22;2238;50.180;9.230;2022-11-20T12:19:01;3.40;99.90
4451;DHT22;2238;50.180;9.230;2022-11-20T12:25:34;3.40;99.90
4451;DHT22;2238;50.180;9.230;2022-11-20T12:48:45;3.60;99.90
4451;DHT22;2238;50.180;9.230;2022-11-20T12:58:48;3.60;99.90
4451;DHT22;2238;50.180;9.230;2022-11-20T13:08:43;3.60;99.90
4451;DHT22;2238;50.180;9.230;2022-11-20T13:12:19;3.40;99.90
4451;DHT22;2238;50.180;9.230;2022-11-20T13:15:36;3.60;99.90
4451;DHT22;2238;50.180;9.230;2022-11-20T13:18:41;3.70;99.90
4451;DHT22;2238;50.180;9.230;2022-11-20T13:21:47;3.80;99.90
4451;DHT22;2238;50.180;9.230;2022-11-20T13:24:51;3.80;99.90
4451;DHT22;2238;50.180;9.230;2022-11-20T13:27:53;3.70;99.90
4451;DHT22;2238;50.180;9.230;2022-11-20T13:30:56;3.70;99.90
4451;DHT22;2238;50.180;9.230;2022-11-20T13:33:57;3.70;99.90
4451;DHT22;2238;50.180;9.230;2022-11-20T13:37:00;3.80;99.90
4451;DHT22;2238;50.180;9.230;2022-11-20T13:43:34;4.70;99.90
4451;DHT22;2238;50.180;9.230;2022-11-20T13:46:44;3.60;99.90
4451;DHT22;2238;50.180;9.230;2022-11-20T13:49:45;3.60;99.90
4451;DHT22;2238;50.180;9.230;2022-11-20T13:59:51;3.60;99.90
4451;DHT22;2238;50.180;9.230;2022-11-20T14:03:25;3.80;99.90
4451;DHT22;2238;50.180;9.230;2022-11-20T14:06:32;4.00;99.90
4451;DHT22;2238;50.180;9.230;2022-11-20T14:09:33;3.90;99.90
4451;DHT22;2238;50.180;9.230;2022-11-20T14:12:34;3.70;99.90
4451;DHT22;2238;50.180;9.230;2022-11-20T14:15:37;3.60;99.90
4451;DHT22;2238;50.180;9.230;2022-11-20T14:18:40;3.70;99.90
4451;DHT22;2238;50.180;9.230;2022-11-20T14:21:41;3.60;99.90
4451;DHT22;2238;50.180;9.230;2022-11-20T14:24:42;3.50;99.90
4451;DHT22;2238;50.180;9.230;2022-11-20T14:27:51;3.50;99.90
4451;DHT22;2238;50.180;9.230;2022-11-20T14:30:54;3.60;99.90
4451;DHT22;2238;50.180;9.230;2022-11-20T14:33:55;3.50;99.90
4451;DHT22;2238;50.180;9.230;2022-11-20T14:37:02;3.80;99.90
4451;DHT22;2238;50.180;9.230;2022-11-20T14:43:28;3.90;99.90
4451;DHT22;2238;50.180;9.230;2022-11-20T14:46:30;3.70;99.90
4451;DHT22;2238;50.180;9.230;2022-11-20T14:49:31;3.60;99.90
4451;DHT22;2238;50.180;9.230;2022-11-20T14:52:32;3.70;99.90
4451;DHT22;2238;50.180;9.230;2022-11-20T14:55:38;3.60;99.90
4451;DHT22;2238;50.180;9.230;2022-11-20T14:58:38;3.70;99.90
4451;DHT22;2238;50.180;9.230;2022-11-20T15:01:39;3.70;99.90
4451;DHT22;2238;50.180;9.230;2022-11-20T15:04:50;3.50;99.90
4451;DHT22;2238;50.180;9.230;2022-11-20T15:08:08;3.50;99.90
4451;DHT22;2238;50.180;9.230;2022-11-20T15:11:25;3.50;99.90
4451;DHT22;2238;50.180;9.230;2022-11-20T15:14:28;3.60;99.90
4451;DHT22;2238;50.180;9.230;2022-11-20T15:17:31;3.70;99.90
4451;DHT22;2238;50.180;9.230;2022-11-20T15:20:33;3.70;99.90
4451;DHT22;2238;50.180;9.230;2022-11-20T15:23:34;3.60;99.90
4451;DHT22;2238;50.180;9.230;2022-11-20T15:26:35;3.60;99.90
4451;DHT22;2238;50.180;9.230;2022-11-20T15:29:37;3.50;99.90
4451;DHT22;2238;50.180;9.230;2022-11-20T15:32:37;3.80;99.90
4451;DHT22;2238;50.180;9.230;2022-11-20T15:35:38;3.40;99.90
4451;DHT22;2238;50.180;9.230;2022-11-20T15:38:39;3.30;99.90
4451;DHT22;2238;50.180;9.230;2022-11-20T15:41:40;3.40;99.90
4451;DHT22;2238;50.180;9.230;2022-11-20T15:44:41;3.50;99.90
4451;DHT22;2238;50.180;9.230;2022-11-20T15:47:41;3.40;99.90
4451;DHT22;2238;50.180;9.230;2022-11-20T15:54:20;3.40;99.90
4451;DHT22;2238;50.180;9.230;2022-11-20T15:57:21;3.40;99.90
4451;DHT22;2238;50.180;9.230;2022-11-20T16:00:23;3.40;99.90
4451;DHT22;2238;50.180;9.230;2022-11-20T16:03:24;3.50;99.90
4451;DHT22;2238;50.180;9.230;2022-11-20T16:06:24;3.30;99.90
4451;DHT22;2238;50.180;9.230;2022-11-20T16:09:25;3.30;99.90
4451;DHT22;2238;50.180;9.230;2022-11-20T16:12:26;3.30;99.90
4451;DHT22;2238;50.180;9.230;2022-11-20T16:15:50;3.40;99.90
4451;DHT22;2238;50.180;9.230;2022-11-20T16:18:51;3.30;99.90
4451;DHT22;2238;50.180;9.230;2022-11-20T16:21:51;3.40;99.90
4451;DHT22;2238;50.180;9.230;2022-11-20T16:24:52;3.50;99.90
4451;DHT22;2238;50.180;9.230;2022-11-20T16:27:53;3.40;99.90
4451;DHT22;2238;50.180;9.230;2022-11-20T16:30:55;3.50;99.90
4451;DHT22;2238;50.180;9.230;2022-11-20T16:33:57;3.70;99.90
4451;DHT22;2238;50.180;9.230;2022-11-20T16:36:58;3.80;99.90
4451;DHT22;2238;50.180;9.230;2022-11-20T16:39:59;3.90;99.90
4451;DHT22;2238;50.180;9.230;2022-11-20T16:43:11;4.00;99.90
4451;DHT22;2238;50.180;9.230;2022-11-20T16:46:16;4.10;99.90
4451;DHT22;2238;50.180;9.230;2022-11-20T16:49:17;4.00;99.90
4451;DHT22;2238;50.180;9.230;2022-11-20T16:52:18;4.90;99.90
4451;DHT22;2238;50.180;9.230;2022-11-20T16:55:18;4.00;99.90
4451;DHT22;2238;50.180;9.230;2022-11-20T16:58:19;4.70;99.90
4451;DHT22;2238;50.180;9.230;2022-11-20T17:01:20;4.10;99.90
4451;DHT22;2238;50.180;9.230;2022-11-20T17:04:21;4.10;99.90
4451;DHT22;2238;50.180;9.230;2022-11-20T17:07:22;4.30;99.90
4451;DHT22;2238;50.180;9.230;2022-11-20T17:10:23;5.40;99.90
4451;DHT22;2238;50.180;9.230;2022-11-20T17:13:23;5.50;99.90
4451;DHT22;2238;50.180;9.230;2022-11-20T17:16:24;5.30;99.90
4451;DHT22;2238;50.180;9.230;2022-11-20T17:19:25;5.80;99.90
4451;DHT22;2238;50.180;9.230;2022-11-20T17:22:25;6.10;99.90
4451;DHT22;2238;50.180;9.230;2022-11-20T17:25:27;4.90;99.90
4451;DHT22;2238;50.180;9.230;2022-11-20T17:28:27;4.90;99.90
4451;DHT22;2238;50.180;9.230;2022-11-20T17:31:30;4.90;99.90
4451;DHT22;2238;50.180;9.230;2022-11-20T17:34:31;5.50;99.90
4451;DHT22;2238;50.180;9.230;2022-11-20T17:37:32;5.10;99.90
4451;DHT22;2238;50.180;9.230;2022-11-20T17:40:32;5.10;99.90
4451;DHT22;2238;50.180;9.230;2022-11-20T17:43:33;5.20;99.90
4451;DHT22;2238;50.180;9.230;2022-11-20T17:46:36;5.20;99.90
4451;DHT22;2238;50.180;9.230;2022-11-20T17:49:37;5.20;99.90
4451;DHT22;2238;50.180;9.230;2022-11-20T17:52:37;6.30;99.90
4451;DHT22;2238;50.180;9.230;2022-11-20T17:55:38;5.60;99.90
4451;DHT22;2238;50.180;9.230;2022-11-20T17:58:57;5.50;99.90
4451;DHT22;2238;50.180;9.230;2022-11-20T18:01:57;5.40;99.90
4451;DHT22;2238;50.180;9.230;2022-11-20T18:04:58;5.40;99.90
4451;DHT22;2238;50.180;9.230;2022-11-20T18:07:59;5.30;99.90
4451;DHT22;2238;50.180;9.230;2022-11-20T18:10:59;5.30;99.90
4451;DHT22;2238;50.180;9.230;2022-11-20T18:14:03;5.30;99.90
4451;DHT22;2238;50.180;9.230;2022-11-20T18:17:22;5.20;99.90
4451;DHT22;2238;50.180;9.230;2022-11-20T18:20:23;5.20;99.90
4451;DHT22;2238;50.180;9.230;2022-11-20T18:23:24;5.50;99.90
4451;DHT22;2238;50.180;9.230;2022-11-20T18:26:24;5.30;99.90
4451;DHT22;2238;50.180;9.230;2022-11-20T18:30:39;5.40;99.90
4451;DHT22;2238;50.180;9.230;2022-11-20T18:33:40;5.60;99.90
4451;DHT22;2238;50.180;9.230;2022-11-20T18:36:41;5.50;99.90
4451;DHT22;2238;50.180;9.230;2022-11-20T18:39:42;5.50;99.90
4451;DHT22;2238;50.180;9.230;2022-11-20T18:42:43;5.60;99.90
4451;DHT22;2238;50.180;9.230;2022-11-20T18:46:02;5.50;99.90
4451;DHT22;2238;50.180;9.230;2022-11-20T18:49:03;5.50;99.90
4451;DHT22;2238;50.180;9.230;2022-11-20T18:52:04;5.50;99.90
4451;DHT22;2238;50.180;9.230;2022-11-20T18:55:05;5.50;99.90
4451;DHT22;2238;50.180;9.230;2022-11-20T18:58:06;5.50;99.90
4451;DHT22;2238;50.180;9.230;2022-11-20T19:01:07;5.50;99.90
4451;DHT22;2238;50.180;9.230;2022-11-20T19:04:09;6.40;99.90
4451;DHT22;2238;50.180;9.230;2022-11-20T19:07:13;5.50;99.90
4451;DHT22;2238;50.180;9.230;2022-11-20T19:10:18;5.40;99.90
4451;DHT22;2238;50.180;9.230;2022-11-20T19:13:19;5.40;99.90
4451;DHT22;2238;50.180;9.230;2022-11-20T19:16:21;5.30;99.90
4451;DHT22;2238;50.180;9.230;2022-11-20T19:19:22;5.40;99.90
4451;DHT22;2238;50.180;9.230;2022-11-20T19:22:22;5.50;99.90
4451;DHT22;2238;50.180;9.230;2022-11-20T19:25:23;5.40;99.90
4451;DHT22;2238;50.180;9.230;2022-11-20T19:28:25;5.30;99.90
4451;DHT22;2238;50.180;9.230;2022-11-20T19:31:29;5.40;99.90
4451;DHT22;2238;50.180;9.230;2022-11-20T19:34:30;5.30;99.90
4451;DHT22;2238;50.180;9.230;2022-11-20T19:37:32;5.30;99.90
4451;DHT22;2238;50.180;9.230;2022-11-20T19:40:33;6.20;99.90
4451;DHT22;2238;50.180;9.230;2022-11-20T19:43:34;5.20;99.90
4451;DHT22;2238;50.180;9.230;2022-11-20T19:46:36;5.30;99.90
4451;DHT22;2238;50.180;9.230;2022-11-20T19:49:37;5.40;99.90
4451;DHT22;2238;50.180;9.230;2022-11-20T19:52:41;5.30;99.90
4451;DHT22;2238;50.180;9.230;2022-11-20T19:55:41;5.30;99.90
4451;DHT22;2238;50.180;9.230;2022-11-20T19:58:42;5.30;99.90
4451;DHT22;2238;50.180;9.230;2022-11-20T20:01:43;5.30;99.90
4451;DHT22;2238;50.180;9.230;2022-11-20T20:04:44;5.30;99.90
4451;DHT22;2238;50.180;9.230;2022-11-20T20:07:46;5.30;99.90
4451;DHT22;2238;50.180;9.230;2022-11-20T20:10:48;5.30;99.90
4451;DHT22;2238;50.180;9.230;2022-11-20T20:13:48;5.40;99.90
4451;DHT22;2238;50.180;9.230;2022-11-20T20:16:49;5.40;99.90
4451;DHT22;2238;50.180;9.230;2022-11-20T20:19:50;5.30;99.90
4451;DHT22;2238;50.180;9.230;2022-11-20T20:22:50;5.40;99.90
4451;DHT22;2238;50.180;9.230;2022-11-20T20:25:51;5.30;99.90
4451;DHT22;2238;50.180;9.230;2022-11-20T20:28:52;5.40;99.90
4451;DHT22;2238;50.180;9.230;2022-11-20T20:31:53;5.40;99.90
4451;DHT22;2238;50.180;9.230;2022-11-20T20:34:54;5.40;99.90
4451;DHT22;2238;50.180;9.230;2022-11-20T20:37:54;5.40;99.90
4451;DHT22;2238;50.180;9.230;2022-11-20T20:40:55;5.40;99.90
4451;DHT22;2238;50.180;9.230;2022-11-20T20:43:56;5.40;99.90
4451;DHT22;2238;50.180;9.230;2022-11-20T20:47:15;5.40;99.90
4451;DHT22;2238;50.180;9.230;2022-11-20T20:50:16;7.70;99.90
4451;DHT22;2238;50.180;9.230;2022-11-20T20:53:16;5.50;99.90
4451;DHT22;2238;50.180;9.230;2022-11-20T20:56:18;5.40;99.90
4451;DHT22;2238;50.180;9.230;2022-11-20T20:59:19;5.50;99.90
4451;DHT22;2238;50.180;9.230;2022-11-20T21:02:20;6.10;99.90
4451;DHT22;2238;50.180;9.230;2022-11-20T21:05:21;5.50;99.90
4451;DHT22;2238;50.180;9.230;2022-11-20T21:08:25;5.50;99.90
4451;DHT22;2238;50.180;9.230;2022-11-20T21:11:27;5.50;99.90
4451;DHT22;2238;50.180;9.230;2022-11-20T21:14:28;5.60;99.90
4451;DHT22;2238;50.180;9.230;2022-11-20T21:17:28;6.70;99.90
4451;DHT22;2238;50.180;9.230;2022-11-20T21:20:29;3.90;99.90
4451;DHT22;2238;50.180;9.230;2022-11-20T21:23:50;5.60;99.90
4451;DHT22;2238;50.180;9.230;2022-11-20T21:26:53;5.60;99.90
4451;DHT22;2238;50.180;9.230;2022-11-20T21:29:53;5.50;99.90
4451;DHT22;2238;50.180;9.230;2022-11-20T21:32:54;5.60;99.90
4451;DHT22;2238;50.180;9.230;2022-11-20T21:35:57;6.30;99.90
4451;DHT22;2238;50.180;9.230;2022-11-20T21:38:58;5.60;99.90
4451;DHT22;2238;50.180;9.230;2022-11-20T21:41:59;5.60;99.90
4451;DHT22;2238;50.180;9.230;2022-11-20T21:44:59;5.60;99.90
4451;DHT22;2238;50.180;9.230;2022-11-20T21:48:00;5.60;99.90
4451;DHT22;2238;50.180;9.230;2022-11-20T21:51:05;5.70;99.90
4451;DHT22;2238;50.180;9.230;2022-11-20T21:54:08;5.60;99.90
4451;DHT22;2238;50.180;9.230;2022-11-20T21:57:09;5.60;99.90
4451;DHT22;2238;50.180;9.230;2022-11-20T22:00:11;5.60;99.90
4451;DHT22;2238;50.180;9.230;2022-11-20T22:03:11;5.60;99.90